Time;durP1;ratioP1;P1;durP2;ratioP2;P2;SDS_P1;SDS_P2;PMS_P1;PMS_P2;Temp;Humidity;BMP_temperature;BMP_pressure;BME280_temperature;BME280_humidity;BME280_pressure;Samples;Min_cycle;Max_cycle;Signal;HPM_P1;HPM_P2
2022/11/06 00:00:31;;;;;;;18.63;17.07;;;9.30;99.90;;;;;;10395756;28;20214;-81
2022/11/06 00:11:10;;;;;;;20.93;18.83;;;9.30;99.90;;;;;;10375253;28;20658;-81
2022/11/06 00:21:55;;;;;;;19.70;18.00;;;9.20;99.90;;;;;;10391213;28;20186;-82
2022/11/06 00:27:03;;;;;;;18.70;17.00;;;9.20;99.90;;;;;;10461189;22;20237;-82
2022/11/06 00:32:56;;;;;;;18.93;17.33;;;9.20;99.90;;;;;;10446946;28;20197;-82
2022/11/06 00:38:13;;;;;;;18.57;16.93;;;9.30;99.90;;;;;;10437038;28;20224;-80
2022/11/06 00:43:15;;;;;;;18.07;16.47;;;9.30;99.90;;;;;;10439323;28;20690;-81
2022/11/06 00:48:50;;;;;;;19.50;17.60;;;9.20;99.90;;;;;;10477529;22;20224;-80
2022/11/06 00:53:56;;;;;;;20.70;18.50;;;9.20;99.90;;;;;;10441073;22;20228;-81
2022/11/06 00:59:12;;;;;;;17.87;16.37;;;9.10;99.90;;;;;;10480387;28;20219;-81
2022/11/06 01:04:16;;;;;;;17.40;15.90;;;9.10;99.90;;;;;;10566205;22;20220;-80
2022/11/06 01:09:22;;;;;;;18.80;15.70;;;9.00;99.90;;;;;;10437733;28;20236;-82
2022/11/06 01:14:25;;;;;;;16.60;15.20;;;9.00;99.90;;;;;;10442416;28;20355;-80
2022/11/06 01:19:27;;;;;;;18.40;16.70;;;9.00;99.90;;;;;;10420103;28;20640;-78
2022/11/06 01:24:31;;;;;;;17.80;16.07;;;9.00;99.90;;;;;;10392201;28;20272;-79
2022/11/06 01:29:33;;;;;;;15.83;14.53;;;8.90;99.90;;;;;;10420106;28;20202;-83
2022/11/06 01:34:35;;;;;;;16.60;15.30;;;8.80;99.90;;;;;;10428890;28;20552;-81
2022/11/06 01:39:38;;;;;;;15.53;14.17;;;8.80;99.90;;;;;;10450091;28;20293;-81
2022/11/06 01:45:08;;;;;;;16.67;15.03;;;8.70;99.90;;;;;;10418933;28;20235;-81
2022/11/06 01:50:13;;;;;;;17.00;15.37;;;8.70;99.90;;;;;;10437438;28;20256;-81
2022/11/06 01:55:21;;;;;;;16.30;14.80;;;8.60;99.90;;;;;;10419370;28;20236;-81
2022/11/06 02:00:23;;;;;;;16.20;14.87;;;8.50;99.90;;;;;;10413822;28;20194;-81
2022/11/06 02:05:25;;;;;;;15.10;13.80;;;8.50;99.90;;;;;;10413933;28;20213;-79
2022/11/06 02:10:30;;;;;;;15.23;13.83;;;8.40;99.90;;;;;;10434910;28;20580;-80
2022/11/06 02:15:46;;;;;;;14.70;13.33;;;8.40;99.90;;;;;;10417305;28;20514;-80
2022/11/06 02:21:11;;;;;;;15.57;14.47;;;8.30;99.90;;;;;;10418013;28;20629;-81
2022/11/06 02:26:30;;;;;;;14.73;13.43;;;8.30;99.90;;;;;;10438927;28;20235;-81
2022/11/06 02:31:36;;;;;;;14.20;13.03;;;8.30;99.90;;;;;;10450506;28;20280;-81
2022/11/06 02:36:43;;;;;;;15.40;13.83;;;8.20;99.90;;;;;;10433439;28;20221;-81
2022/11/06 02:41:48;;;;;;;15.10;14.00;;;8.20;99.90;;;;;;10432356;28;20522;-81
2022/11/06 02:46:53;;;;;;;14.70;13.20;;;8.20;99.90;;;;;;10434021;28;20396;-80
2022/11/06 02:51:59;;;;;;;14.00;12.70;;;8.20;99.90;;;;;;10417369;28;20205;-80
2022/11/06 02:57:09;;;;;;;12.47;11.50;;;8.20;99.90;;;;;;10417862;28;20234;-80
2022/11/06 03:02:18;;;;;;;13.50;12.40;;;8.10;99.90;;;;;;10416702;28;20264;-80
2022/11/06 03:07:27;;;;;;;14.03;12.77;;;8.00;99.90;;;;;;10410680;28;20669;-81
2022/11/06 03:12:32;;;;;;;15.00;13.80;;;8.00;99.90;;;;;;10411270;28;20194;-80
2022/11/06 03:17:43;;;;;;;15.60;14.37;;;8.00;99.90;;;;;;10411332;28;20733;-81
2022/11/06 03:22:52;;;;;;;15.30;14.10;;;8.00;99.90;;;;;;10445069;28;20193;-81
2022/11/06 03:28:03;;;;;;;18.50;16.80;;;8.00;99.90;;;;;;10460485;28;20296;-79
2022/11/06 03:33:14;;;;;;;16.03;14.73;;;8.00;99.90;;;;;;10423670;28;20248;-81
2022/11/06 03:38:20;;;;;;;15.50;14.20;;;7.90;99.90;;;;;;10415744;28;20218;-80
2022/11/06 03:43:26;;;;;;;14.57;13.37;;;7.90;99.90;;;;;;10425421;28;20599;-81
2022/11/06 03:48:32;;;;;;;16.37;15.07;;;7.90;99.90;;;;;;10412672;28;20233;-81
2022/11/06 03:53:40;;;;;;;15.20;14.00;;;7.90;99.90;;;;;;10433632;28;20193;-81
2022/11/06 03:58:45;;;;;;;16.10;14.70;;;7.90;99.90;;;;;;10404118;28;20404;-81
2022/11/06 04:03:53;;;;;;;15.97;14.60;;;7.80;99.90;;;;;;10423455;28;20642;-81
2022/11/06 04:14:26;;;;;;;15.83;14.47;;;7.80;99.90;;;;;;10421433;28;20221;-80
2022/11/06 04:19:29;;;;;;;16.40;15.10;;;7.80;99.90;;;;;;10419756;28;20285;-81
2022/11/06 04:30:10;;;;;;;15.67;14.13;;;7.80;99.90;;;;;;10454257;28;20193;-80
2022/11/06 04:35:21;;;;;;;16.87;15.47;;;7.80;99.90;;;;;;10405733;28;20218;-81
2022/11/06 04:40:29;;;;;;;14.07;12.90;;;7.80;99.90;;;;;;10440221;28;20232;-80
2022/11/06 04:45:35;;;;;;;14.30;13.10;;;7.70;99.90;;;;;;10441907;28;20212;-81
2022/11/06 04:50:43;;;;;;;16.20;14.90;;;7.70;99.90;;;;;;10439263;28;20201;-81
2022/11/06 04:55:47;;;;;;;15.63;14.43;;;7.60;99.90;;;;;;10438230;28;20205;-80
2022/11/06 05:00:50;;;;;;;15.10;13.80;;;7.60;99.90;;;;;;10458400;28;20210;-81
2022/11/06 05:05:54;;;;;;;14.93;13.70;;;7.60;99.90;;;;;;10404148;28;20228;-83
2022/11/06 05:10:56;;;;;;;16.27;14.97;;;7.50;99.90;;;;;;10461065;28;20267;-82
2022/11/06 05:15:59;;;;;;;17.90;16.37;;;7.50;99.90;;;;;;10450310;28;20386;-82
2022/11/06 05:26:19;;;;;;;15.80;14.50;;;7.50;99.90;;;;;;10394799;28;20228;-81
2022/11/06 05:31:21;;;;;;;16.97;15.67;;;7.50;99.90;;;;;;10475291;28;20208;-80
2022/11/06 05:36:25;;;;;;;16.60;15.30;;;7.50;99.90;;;;;;10440156;28;20566;-81
2022/11/06 05:41:27;;;;;;;15.80;14.60;;;7.40;99.90;;;;;;10443199;28;20267;-81
2022/11/06 05:46:31;;;;;;;15.10;13.70;;;7.50;99.90;;;;;;10441948;28;20213;-80
2022/11/06 05:51:34;;;;;;;14.40;13.30;;;7.40;99.90;;;;;;10459836;28;20869;-81
2022/11/06 05:56:36;;;;;;;15.10;14.00;;;7.40;99.90;;;;;;10460298;28;20595;-81
2022/11/06 06:01:39;;;;;;;15.20;13.97;;;7.40;99.90;;;;;;10429082;28;20277;-81
2022/11/06 06:06:42;;;;;;;14.40;13.30;;;7.30;99.90;;;;;;10440818;28;20674;-80
2022/11/06 06:11:44;;;;;;;15.23;13.97;;;7.30;99.90;;;;;;10458276;28;20201;-82
2022/11/06 06:16:46;;;;;;;16.20;14.87;;;7.30;99.90;;;;;;10457782;28;20570;-80
2022/11/06 06:21:50;;;;;;;23.37;21.30;;;7.30;99.90;;;;;;10456925;28;20207;-81
2022/11/06 06:26:52;;;;;;;21.93;20.13;;;7.30;99.90;;;;;;10414567;28;20748;-80
2022/11/06 06:31:54;;;;;;;16.80;15.43;;;7.30;99.90;;;;;;10458378;28;20190;-80
2022/11/06 06:36:58;;;;;;;17.23;15.87;;;7.30;99.90;;;;;;10456606;28;20214;-80
2022/11/06 06:42:00;;;;;;;16.83;15.43;;;7.30;99.90;;;;;;10456344;28;20194;-80
2022/11/06 06:47:02;;;;;;;18.03;16.63;;;7.30;99.90;;;;;;10430806;28;20265;-81
2022/11/06 06:52:06;;;;;;;18.30;16.80;;;7.30;99.90;;;;;;10455131;28;20201;-81
2022/11/06 06:57:08;;;;;;;17.43;16.03;;;7.30;99.90;;;;;;10435806;28;20385;-81
2022/11/06 07:02:10;;;;;;;18.47;16.83;;;7.40;99.90;;;;;;10454551;28;20216;-81
2022/11/06 07:07:14;;;;;;;17.03;15.73;;;7.40;99.90;;;;;;10461175;28;20237;-81
2022/11/06 07:12:16;;;;;;;17.07;15.50;;;7.40;99.90;;;;;;10451861;28;20193;-81
2022/11/06 07:17:18;;;;;;;17.67;16.27;;;7.50;99.90;;;;;;10454501;28;20240;-81
2022/11/06 07:22:21;;;;;;;14.60;13.40;;;7.50;99.90;;;;;;10448004;28;20200;-81
2022/11/06 07:27:23;;;;;;;18.00;16.50;;;7.50;99.90;;;;;;10444527;28;20202;-81
2022/11/06 07:32:25;;;;;;;17.87;16.40;;;7.50;99.90;;;;;;10439497;28;20210;-82
2022/11/06 07:37:29;;;;;;;15.90;14.70;;;7.60;99.90;;;;;;10450295;28;20206;-81
2022/11/06 07:42:31;;;;;;;15.60;14.40;;;7.60;99.90;;;;;;10430337;28;20581;-81
2022/11/06 07:47:38;;;;;;;16.00;14.70;;;7.60;99.90;;;;;;10408546;28;20301;-80
2022/11/06 07:52:41;;;;;;;16.50;15.30;;;7.60;99.90;;;;;;10425620;28;20637;-81
2022/11/06 07:57:43;;;;;;;15.53;14.13;;;7.80;99.90;;;;;;10441778;28;20267;-81
2022/11/06 08:02:45;;;;;;;15.87;14.50;;;7.80;99.90;;;;;;10441879;28;20201;-81
2022/11/06 08:07:49;;;;;;;15.23;14.10;;;7.80;99.90;;;;;;10440627;28;20226;-81
2022/11/06 08:12:51;;;;;;;17.00;15.40;;;7.90;99.90;;;;;;10439250;28;20645;-80
2022/11/06 08:17:53;;;;;;;15.80;14.40;;;7.90;99.90;;;;;;10419417;28;20222;-80
2022/11/06 08:23:00;;;;;;;15.60;14.20;;;8.00;99.90;;;;;;10432429;28;20557;-81
2022/11/06 08:28:03;;;;;;;16.97;15.67;;;8.10;99.90;;;;;;10432215;28;20217;-81
2022/11/06 08:33:07;;;;;;;15.50;14.30;;;8.10;99.90;;;;;;10418165;28;20197;-83
2022/11/06 08:38:10;;;;;;;15.00;13.80;;;8.20;99.90;;;;;;10422212;28;20237;-81
2022/11/06 08:43:12;;;;;;;15.10;13.70;;;8.30;99.90;;;;;;10423119;28;20198;-81
2022/11/06 08:48:14;;;;;;;13.63;12.63;;;8.30;99.90;;;;;;10411051;28;20202;-80
2022/11/06 08:53:18;;;;;;;13.53;12.43;;;8.40;99.90;;;;;;10428298;28;20190;-81
2022/11/06 08:58:20;;;;;;;13.70;12.63;;;8.40;99.90;;;;;;10446937;28;20225;-80
2022/11/06 09:03:22;;;;;;;13.70;12.60;;;8.40;99.90;;;;;;10427559;28;20739;-80
2022/11/06 09:08:25;;;;;;;15.00;13.73;;;8.40;99.90;;;;;;10415687;28;20249;-81
2022/11/06 09:13:28;;;;;;;13.47;12.27;;;8.50;99.90;;;;;;10446402;28;20202;-82
2022/11/06 09:18:30;;;;;;;13.33;12.30;;;8.50;99.90;;;;;;10442077;28;20221;-81
2022/11/06 09:23:33;;;;;;;13.77;12.70;;;8.50;99.90;;;;;;10417662;28;20228;-81
2022/11/06 09:28:35;;;;;;;14.73;13.43;;;8.60;99.90;;;;;;10442857;28;20210;-80
2022/11/06 09:33:37;;;;;;;14.57;13.27;;;8.70;99.90;;;;;;10443408;28;20194;-80
2022/11/06 09:38:41;;;;;;;13.37;12.27;;;8.80;99.90;;;;;;10425211;28;20236;-81
2022/11/06 09:43:56;;;;;;;15.20;14.00;;;8.90;99.90;;;;;;10425652;28;20229;-81
2022/11/06 09:49:05;;;;;;;16.30;15.00;;;8.90;99.90;;;;;;10457622;28;20198;-81
2022/11/06 09:54:14;;;;;;;14.00;12.90;;;9.00;99.90;;;;;;10439033;28;20210;-80
2022/11/06 09:59:20;;;;;;;14.13;13.03;;;9.20;99.90;;;;;;10440272;28;20245;-80
2022/11/06 10:04:31;;;;;;;15.43;14.23;;;9.30;99.90;;;;;;10421134;28;20679;-80
2022/11/06 10:09:34;;;;;;;15.00;13.70;;;9.40;99.90;;;;;;10417085;28;20197;-81
2022/11/06 10:14:49;;;;;;;14.37;13.27;;;9.60;99.90;;;;;;10438712;28;20667;-80
2022/11/06 10:19:57;;;;;;;14.97;13.77;;;9.70;99.90;;;;;;10453338;28;20221;-81
2022/11/06 10:25:13;;;;;;;15.77;14.40;;;9.80;99.90;;;;;;10441629;28;20210;-81
2022/11/06 10:30:18;;;;;;;15.33;14.13;;;9.90;99.90;;;;;;10425873;28;20669;-80
2022/11/06 10:35:25;;;;;;;13.80;12.70;;;10.00;99.90;;;;;;10413204;28;20498;-80
2022/11/06 10:40:31;;;;;;;12.40;11.27;;;10.10;99.90;;;;;;10402084;28;20259;-80
2022/11/06 10:45:36;;;;;;;13.43;12.33;;;10.30;99.90;;;;;;10417800;28;20225;-81
2022/11/06 10:50:48;;;;;;;14.90;13.70;;;10.40;99.90;;;;;;10433716;28;20634;-80
2022/11/06 10:56:17;;;;;;;14.00;12.80;;;10.60;99.90;;;;;;10435407;28;20622;-80
2022/11/06 11:01:19;;;;;;;13.83;12.63;;;10.70;99.90;;;;;;10434050;28;20197;-80
2022/11/06 11:06:21;;;;;;;14.83;13.67;;;10.80;99.90;;;;;;10456014;28;20606;-81
2022/11/06 11:11:26;;;;;;;9.47;8.80;;;10.90;99.90;;;;;;10427285;28;20201;-81
2022/11/06 11:16:33;;;;;;;8.60;8.00;;;11.10;99.90;;;;;;10435972;28;20259;-83
2022/11/06 11:21:36;;;;;;;9.40;8.70;;;11.10;99.90;;;;;;10443430;28;20198;-81
2022/11/06 11:26:44;;;;;;;9.57;8.87;;;11.20;99.90;;;;;;10438946;28;20715;-82
2022/11/06 11:31:50;;;;;;;9.73;9.00;;;11.20;99.90;;;;;;10418495;28;20676;-83
2022/11/06 11:36:57;;;;;;;9.70;8.80;;;11.30;99.90;;;;;;10431220;28;20271;-82
2022/11/06 11:42:25;;;;;;;8.70;8.07;;;11.30;99.90;;;;;;10451101;28;20209;-83
2022/11/06 11:47:27;;;;;;;9.57;8.87;;;11.30;99.90;;;;;;10437808;28;20219;-83
2022/11/06 11:52:29;;;;;;;8.03;7.33;;;11.30;99.90;;;;;;10409036;28;20314;-83
2022/11/06 11:57:33;;;;;;;10.00;9.20;;;11.30;99.90;;;;;;10460740;28;20613;-82
2022/11/06 12:02:42;;;;;;;9.97;9.17;;;11.30;99.90;;;;;;10447017;28;20209;-83
2022/11/06 12:07:48;;;;;;;10.10;9.33;;;11.30;99.90;;;;;;10417577;28;20468;-81
2022/11/06 12:12:52;;;;;;;9.90;9.10;;;11.40;99.90;;;;;;10415196;28;20566;-80
2022/11/06 12:17:59;;;;;;;8.60;8.00;;;11.40;99.90;;;;;;10452551;28;20239;-79
2022/11/06 12:23:03;;;;;;;10.23;9.47;;;11.40;99.90;;;;;;10439080;28;20259;-81
2022/11/06 12:28:14;;;;;;;9.90;9.20;;;11.40;99.90;;;;;;10438353;28;20243;-81
2022/11/06 12:33:20;;;;;;;9.97;9.23;;;11.50;99.90;;;;;;10417900;28;20539;-81
2022/11/06 12:38:30;;;;;;;9.83;9.10;;;11.50;99.90;;;;;;10454205;28;20611;-80
2022/11/06 12:43:40;;;;;;;10.03;9.23;;;11.50;99.90;;;;;;10440014;28;20614;-80
2022/11/06 12:49:04;;;;;;;12.10;11.10;;;11.50;99.90;;;;;;10397723;28;20221;-81
2022/11/06 12:54:24;;;;;;;11.10;10.30;;;11.60;99.90;;;;;;10412893;28;20217;-80
2022/11/06 12:59:43;;;;;;;9.93;9.23;;;11.60;99.90;;;;;;10459272;28;20220;-80
2022/11/06 13:04:54;;;;;;;9.03;8.40;;;11.60;99.90;;;;;;10426231;28;20301;-81
2022/11/06 13:10:29;;;;;;;8.10;7.50;;;11.70;99.90;;;;;;10458635;28;20219;-81
2022/11/06 13:15:38;;;;;;;12.87;11.77;;;11.80;99.90;;;;;;10419766;28;20213;-81
2022/11/06 13:20:44;;;;;;;13.70;12.60;;;12.00;99.90;;;;;;10423771;28;20300;-81
2022/11/06 13:25:51;;;;;;;10.57;9.87;;;12.10;99.90;;;;;;10406762;28;20217;-81
2022/11/06 13:30:57;;;;;;;8.83;8.23;;;12.10;99.90;;;;;;10463777;28;20221;-81
2022/11/06 13:36:00;;;;;;;8.10;7.50;;;12.20;99.90;;;;;;10429113;28;20228;-81
2022/11/06 13:41:06;;;;;;;10.17;9.27;;;12.20;99.90;;;;;;10452597;28;20407;-81
2022/11/06 13:46:19;;;;;;;8.93;8.33;;;12.20;99.90;;;;;;10450974;28;20266;-81
2022/11/06 13:51:29;;;;;;;8.90;7.60;;;12.20;99.90;;;;;;10439995;28;20197;-81
2022/11/06 13:56:55;;;;;;;15.40;13.90;;;12.20;99.90;;;;;;10434479;28;20622;-81
2022/11/06 14:02:13;;;;;;;20.70;17.90;;;12.20;99.90;;;;;;10455027;28;20224;-81
2022/11/06 14:07:17;;;;;;;14.30;12.87;;;12.30;99.90;;;;;;10454279;28;20285;-80
2022/11/06 14:12:22;;;;;;;12.73;11.50;;;12.30;99.90;;;;;;10452725;28;20287;-80
2022/11/06 14:17:26;;;;;;;10.37;9.37;;;12.30;99.90;;;;;;10453171;28;20754;-81
2022/11/06 14:22:30;;;;;;;11.53;10.53;;;12.40;99.90;;;;;;10438470;28;20281;-81
2022/11/06 14:28:05;;;;;;;11.80;10.53;;;12.30;99.90;;;;;;10434776;28;20385;-80
2022/11/06 14:33:12;;;;;;;8.37;7.67;;;12.30;99.90;;;;;;10427806;28;20665;-80
2022/11/06 14:38:35;;;;;;;16.33;12.00;;;12.30;99.90;;;;;;10431011;28;20217;-81
2022/11/06 14:43:37;;;;;;;20.23;15.00;;;12.30;99.90;;;;;;10431757;28;20205;-81
2022/11/06 14:48:43;;;;;;;15.20;13.10;;;12.30;99.90;;;;;;10405009;28;20359;-81
2022/11/06 14:53:48;;;;;;;10.00;9.30;;;12.30;99.90;;;;;;10422875;28;20193;-80
2022/11/06 14:58:54;;;;;;;7.60;7.10;;;12.20;99.90;;;;;;10421726;28;20292;-79
2022/11/06 15:04:01;;;;;;;7.90;7.37;;;12.20;99.90;;;;;;10444585;28;20543;-80
2022/11/06 15:09:05;;;;;;;6.80;6.40;;;12.10;99.90;;;;;;10447429;28;20193;-80
2022/11/06 15:14:45;;;;;;;6.80;6.40;;;12.10;99.90;;;;;;10433029;28;20299;-81
2022/11/06 15:19:57;;;;;;;7.93;7.40;;;12.00;99.90;;;;;;10441396;28;20225;-81
2022/11/06 15:25:20;;;;;;;7.00;6.60;;;12.00;99.90;;;;;;10436768;28;20260;-79
2022/11/06 15:30:23;;;;;;;7.60;7.10;;;12.00;99.90;;;;;;10438278;28;20233;-80
2022/11/06 15:35:28;;;;;;;8.73;8.03;;;11.90;99.90;;;;;;10431674;28;20217;-80
2022/11/06 15:40:32;;;;;;;7.10;6.70;;;11.80;99.90;;;;;;10451920;28;20218;-80
2022/11/06 15:45:34;;;;;;;8.80;8.20;;;11.70;99.90;;;;;;10431998;28;20217;-80
2022/11/06 15:50:42;;;;;;;8.40;7.90;;;11.70;99.90;;;;;;10455227;28;20268;-80
2022/11/06 15:55:52;;;;;;;9.90;9.20;;;11.60;99.90;;;;;;10434536;28;20235;-81
2022/11/06 16:00:54;;;;;;;10.17;9.47;;;11.50;99.90;;;;;;10434562;28;20221;-80
2022/11/06 16:06:01;;;;;;;9.33;8.73;;;11.50;99.90;;;;;;10455634;28;20248;-80
2022/11/06 16:11:03;;;;;;;9.80;9.10;;;11.40;99.90;;;;;;10463140;28;20197;-79
2022/11/06 16:16:06;;;;;;;9.90;9.10;;;11.40;99.90;;;;;;10459883;28;20616;-80
2022/11/06 16:21:15;;;;;;;12.03;11.00;;;11.30;99.90;;;;;;10456820;28;20604;-80
2022/11/06 16:26:23;;;;;;;19.30;16.07;;;11.30;99.90;;;;;;10439916;28;20601;-80
2022/11/06 16:31:27;;;;;;;17.40;15.60;;;11.30;99.90;;;;;;10451010;28;20610;-81
2022/11/06 16:36:48;;;;;;;15.13;13.73;;;11.30;99.90;;;;;;10426494;28;20245;-80
2022/11/06 16:42:02;;;;;;;11.27;10.37;;;11.30;99.90;;;;;;10430375;28;20587;-79
2022/11/06 16:47:17;;;;;;;14.90;13.50;;;11.20;99.90;;;;;;10440998;28;20316;-79
2022/11/06 16:52:24;;;;;;;17.20;15.60;;;11.20;99.90;;;;;;10448507;28;20201;-80
2022/11/06 16:57:29;;;;;;;12.90;11.80;;;11.20;99.90;;;;;;10410006;28;20300;-80
2022/11/06 17:02:36;;;;;;;13.57;12.47;;;11.20;99.90;;;;;;10447372;28;20194;-79
2022/11/06 17:07:41;;;;;;;13.50;12.33;;;11.30;99.90;;;;;;10425532;28;20228;-80
2022/11/06 17:12:43;;;;;;;11.90;11.10;;;11.30;99.90;;;;;;10439388;28;20256;-79
2022/11/06 17:17:45;;;;;;;11.73;10.77;;;11.30;99.90;;;;;;10421244;28;20214;-81
2022/11/06 17:22:49;;;;;;;13.60;12.50;;;11.40;99.90;;;;;;10456038;28;20194;-80
2022/11/06 17:27:51;;;;;;;12.30;11.30;;;11.40;99.90;;;;;;10448887;28;20208;-78
2022/11/06 17:32:53;;;;;;;13.83;12.73;;;11.30;99.90;;;;;;10414535;28;20198;-80
2022/11/06 17:37:57;;;;;;;13.27;12.20;;;11.30;99.90;;;;;;10439356;28;20232;-80
2022/11/06 17:42:59;;;;;;;11.40;10.50;;;11.30;99.90;;;;;;10438721;28;20198;-79
2022/11/06 17:48:01;;;;;;;13.90;12.70;;;11.40;99.90;;;;;;10434485;28;20727;-80
2022/11/06 17:53:04;;;;;;;10.40;9.60;;;11.40;99.90;;;;;;10423155;28;20271;-81
2022/11/06 17:58:06;;;;;;;10.17;9.37;;;11.40;99.90;;;;;;10440861;28;20210;-81
2022/11/06 18:03:16;;;;;;;11.40;10.50;;;11.40;99.90;;;;;;10439177;28;20329;-80
2022/11/06 18:08:19;;;;;;;10.50;9.70;;;11.40;99.90;;;;;;10460399;28;20232;-80
2022/11/06 18:13:22;;;;;;;9.90;9.13;;;11.40;99.90;;;;;;10455862;28;20638;-79
2022/11/06 18:18:26;;;;;;;10.00;9.30;;;11.40;99.90;;;;;;10432577;28;20217;-78
2022/11/06 18:23:29;;;;;;;9.43;8.73;;;11.40;99.90;;;;;;10436686;28;20207;-79
2022/11/06 18:28:31;;;;;;;9.30;8.60;;;11.40;99.90;;;;;;10435129;28;20303;-79
2022/11/06 18:33:35;;;;;;;9.17;8.47;;;11.40;99.90;;;;;;10438488;28;20217;-79
2022/11/06 18:38:39;;;;;;;8.50;8.00;;;11.30;99.90;;;;;;10419611;28;20698;-78
2022/11/06 18:43:41;;;;;;;7.50;6.93;;;11.30;99.90;;;;;;10420484;28;20285;-79
2022/11/06 18:48:43;;;;;;;7.63;7.13;;;11.40;99.90;;;;;;10432070;28;20688;-80
2022/11/06 18:53:49;;;;;;;5.53;5.13;;;11.40;99.90;;;;;;10444469;28;20655;-79
2022/11/06 18:58:51;;;;;;;5.23;4.93;;;11.50;99.90;;;;;;10451556;28;20225;-78
2022/11/06 19:03:53;;;;;;;5.50;5.20;;;11.50;99.90;;;;;;10446163;28;20212;-79
2022/11/06 19:08:57;;;;;;;5.30;5.00;;;11.60;99.90;;;;;;10420276;28;20197;-80
2022/11/06 19:13:59;;;;;;;7.43;6.93;;;11.60;99.90;;;;;;10428726;28;20224;-79
2022/11/06 19:19:03;;;;;;;6.10;5.77;;;11.70;99.90;;;;;;10438705;28;20225;-80
2022/11/06 19:24:07;;;;;;;5.03;4.73;;;11.80;99.90;;;;;;10451334;28;20229;-79
2022/11/06 19:29:09;;;;;;;7.90;7.30;;;11.80;99.90;;;;;;10440356;28;20683;-79
2022/11/06 19:34:12;;;;;;;8.07;7.37;;;11.80;99.90;;;;;;10427731;28;20224;-80
2022/11/06 19:39:16;;;;;;;5.73;5.40;;;11.90;99.90;;;;;;10420094;28;20637;-79
2022/11/06 19:44:18;;;;;;;7.33;5.03;;;11.90;99.90;;;;;;10447835;28;20342;-80
2022/11/06 19:49:21;;;;;;;5.80;5.40;;;11.90;99.90;;;;;;10420743;28;20219;-79
2022/11/06 19:54:24;;;;;;;4.87;4.57;;;11.90;99.90;;;;;;10450557;28;20229;-81
2022/11/06 19:59:26;;;;;;;6.00;5.60;;;11.90;99.90;;;;;;10439374;28;20240;-81
2022/11/06 20:04:28;;;;;;;4.73;4.43;;;11.90;99.90;;;;;;10447579;28;20694;-80
2022/11/06 20:09:33;;;;;;;5.27;4.87;;;11.90;99.90;;;;;;10444273;28;20249;-80
2022/11/06 20:14:35;;;;;;;5.40;5.10;;;11.80;99.90;;;;;;10450293;28;20291;-80
2022/11/06 20:19:37;;;;;;;6.10;5.70;;;11.80;99.90;;;;;;10442017;28;20231;-80
2022/11/06 20:24:41;;;;;;;4.80;4.50;;;11.80;99.90;;;;;;10456554;28;20244;-80
2022/11/06 20:29:43;;;;;;;5.10;4.80;;;11.80;99.90;;;;;;10446297;28;20200;-79
2022/11/06 20:34:45;;;;;;;6.07;5.67;;;11.80;99.90;;;;;;10445260;28;20229;-79
2022/11/06 20:39:50;;;;;;;4.50;4.20;;;11.80;99.90;;;;;;10422229;28;20256;-80
2022/11/06 20:44:52;;;;;;;5.10;4.80;;;11.80;99.90;;;;;;10459396;28;20225;-80
2022/11/06 20:49:54;;;;;;;4.37;4.17;;;11.80;99.90;;;;;;10439057;28;20278;-79
2022/11/06 20:54:58;;;;;;;4.70;4.50;;;11.80;99.90;;;;;;10451342;28;20667;-79
2022/11/06 21:00:00;;;;;;;3.90;3.70;;;11.90;99.90;;;;;;10447919;28;20217;-81
2022/11/06 21:05:02;;;;;;;4.20;3.87;;;11.80;99.90;;;;;;10459468;28;20731;-80
2022/11/06 21:10:06;;;;;;;3.50;3.30;;;11.80;99.90;;;;;;10456692;28;20205;-81
2022/11/06 21:15:08;;;;;;;4.20;4.00;;;11.80;99.90;;;;;;10453675;28;20213;-81
2022/11/06 21:20:10;;;;;;;4.33;4.13;;;11.80;99.90;;;;;;10440277;28;20253;-81
2022/11/06 21:25:14;;;;;;;3.33;3.13;;;11.80;99.90;;;;;;10464799;28;20221;-82
2022/11/06 21:30:16;;;;;;;4.63;4.43;;;11.90;99.90;;;;;;10438685;28;20190;-81
2022/11/06 21:35:18;;;;;;;4.10;3.90;;;11.90;99.90;;;;;;10462780;28;20688;-81
2022/11/06 21:40:21;;;;;;;3.07;2.87;;;11.90;99.90;;;;;;10461313;28;20229;-78
2022/11/06 21:45:24;;;;;;;4.07;3.87;;;11.90;99.90;;;;;;10459766;28;20233;-81
2022/11/06 21:50:26;;;;;;;3.67;3.47;;;11.90;99.90;;;;;;10433830;28;20276;-81
2022/11/06 22:00:50;;;;;;;4.73;4.43;;;11.90;99.90;;;;;;10434909;28;20220;-80
2022/11/06 22:05:52;;;;;;;4.17;3.83;;;11.90;99.90;;;;;;10433537;28;20301;-81
2022/11/06 22:10:55;;;;;;;4.10;3.90;;;12.00;99.90;;;;;;10418327;28;20225;-81
2022/11/06 22:16:00;;;;;;;4.10;3.90;;;12.00;99.90;;;;;;10432632;28;20217;-81
2022/11/06 22:21:07;;;;;;;4.30;4.10;;;12.10;99.90;;;;;;10450495;28;20344;-81
2022/11/06 22:26:12;;;;;;;3.10;2.90;;;12.20;99.90;;;;;;10430989;28;20217;-82
2022/11/06 22:31:15;;;;;;;4.10;3.90;;;12.20;99.90;;;;;;10429781;28;20224;-81
2022/11/06 22:36:18;;;;;;;4.43;4.23;;;12.20;99.90;;;;;;10462005;28;20240;-81
2022/11/06 22:41:23;;;;;;;4.10;3.90;;;12.10;99.90;;;;;;10444561;28;20225;-80
2022/11/06 22:46:26;;;;;;;4.43;4.03;;;12.10;99.90;;;;;;10449229;28;20308;-82
2022/11/06 22:51:29;;;;;;;4.00;3.80;;;12.00;99.90;;;;;;10434811;28;20288;-82
2022/11/06 22:56:33;;;;;;;3.93;3.63;;;12.10;99.90;;;;;;10447202;28;20216;-82
2022/11/06 23:01:37;;;;;;;3.07;2.77;;;12.10;99.90;;;;;;10453090;28;20217;-81
2022/11/06 23:06:39;;;;;;;3.40;3.20;;;12.20;99.90;;;;;;10454388;28;20225;-80
2022/11/06 23:11:45;;;;;;;3.27;3.07;;;12.10;99.90;;;;;;10453791;28;20197;-81
2022/11/06 23:27:29;;;;;;;3.07;2.87;;;12.00;99.90;;;;;;10423497;28;20266;-79
2022/11/06 23:32:33;;;;;;;3.40;3.20;;;12.00;99.90;;;;;;10453311;28;20618;-79
2022/11/06 23:37:36;;;;;;;3.57;3.37;;;12.00;99.90;;;;;;10417325;28;20230;-79
2022/11/06 23:42:39;;;;;;;3.90;3.03;;;12.00;99.90;;;;;;10431745;28;20231;-80
2022/11/06 23:47:41;;;;;;;3.47;3.27;;;12.00;99.90;;;;;;10425494;28;20581;-81
2022/11/06 23:52:44;;;;;;;3.20;3.03;;;12.00;99.90;;;;;;10417362;28;20550;-82
2022/11/06 23:57:48;;;;;;;3.33;2.90;;;12.00;99.90;;;;;;10427280;28;20247;-80
